sensor_id;sensor_type;location;lat;lon;timestamp;pressure;altitude;pressure_sealevel;temperature;humidity
39363;BME280;25088;43.238;23.110;2022-12-16T00:01:46;96224.53;;;1.83;100.00
39363;BME280;25088;43.238;23.110;2022-12-16T00:04:12;96235.72;;;1.87;100.00
39363;BME280;25088;43.238;23.110;2022-12-16T00:06:37;96225.38;;;1.90;100.00
39363;BME280;25088;43.238;23.110;2022-12-16T00:09:02;96221.03;;;1.76;100.00
39363;BME280;25088;43.238;23.110;2022-12-16T00:11:28;96216.06;;;1.73;100.00
39363;BME280;25088;43.238;23.110;2022-12-16T00:13:56;96240.09;;;1.54;100.00
39363;BME280;25088;43.238;23.110;2022-12-16T00:16:21;96233.84;;;1.54;100.00
39363;BME280;25088;43.238;23.110;2022-12-16T00:18:46;96220.19;;;1.69;100.00
39363;BME280;25088;43.238;23.110;2022-12-16T00:21:12;96226.44;;;1.56;100.00
39363;BME280;25088;43.238;23.110;2022-12-16T00:23:38;96214.22;;;1.67;100.00
39363;BME280;25088;43.238;23.110;2022-12-16T00:26:05;96221.06;;;1.69;100.00
39363;BME280;25088;43.238;23.110;2022-12-16T00:28:31;96223.72;;;1.76;100.00
39363;BME280;25088;43.238;23.110;2022-12-16T00:30:56;96214.84;;;1.75;100.00
39363;BME280;25088;43.238;23.110;2022-12-16T00:33:22;96237.38;;;1.81;100.00
39363;BME280;25088;43.238;23.110;2022-12-16T00:35:48;96236.97;;;1.71;100.00
39363;BME280;25088;43.238;23.110;2022-12-16T00:38:14;96230.56;;;1.72;100.00
39363;BME280;25088;43.238;23.110;2022-12-16T00:40:39;96248.56;;;1.71;100.00
39363;BME280;25088;43.238;23.110;2022-12-16T00:43:05;96236.97;;;1.71;100.00
39363;BME280;25088;43.238;23.110;2022-12-16T00:45:30;96249.59;;;1.64;100.00
39363;BME280;25088;43.238;23.110;2022-12-16T00:47:56;96256.44;;;1.60;100.00
39363;BME280;25088;43.238;23.110;2022-12-16T00:50:21;96249.19;;;1.67;100.00
39363;BME280;25088;43.238;23.110;2022-12-16T00:52:47;96253.13;;;1.58;100.00
39363;BME280;25088;43.238;23.110;2022-12-16T00:55:13;96260.78;;;1.61;100.00
39363;BME280;25088;43.238;23.110;2022-12-16T00:57:39;96264.31;;;1.54;100.00
39363;BME280;25088;43.238;23.110;2022-12-16T01:00:05;96260.78;;;1.61;100.00
39363;BME280;25088;43.238;23.110;2022-12-16T01:02:31;96263.06;;;1.70;100.00
39363;BME280;25088;43.238;23.110;2022-12-16T01:04:56;96229.34;;;1.74;100.00
39363;BME280;25088;43.238;23.110;2022-12-16T01:07:21;96241.53;;;1.77;100.00
39363;BME280;25088;43.238;23.110;2022-12-16T01:09:47;96249.59;;;1.77;100.00
39363;BME280;25088;43.238;23.110;2022-12-16T01:12:12;96241.53;;;1.70;100.00
39363;BME280;25088;43.238;23.110;2022-12-16T01:14:38;96239.69;;;1.64;100.00
39363;BME280;25088;43.238;23.110;2022-12-16T01:17:03;96228.06;;;1.57;100.00
39363;BME280;25088;43.238;23.110;2022-12-16T01:19:28;96231.38;;;1.72;100.00
39363;BME280;25088;43.238;23.110;2022-12-16T01:21:54;96245.28;;;1.69;100.00
39363;BME280;25088;43.238;23.110;2022-12-16T01:24:19;96239.25;;;1.74;100.00
39363;BME280;25088;43.238;23.110;2022-12-16T01:26:44;96237.59;;;1.66;100.00
39363;BME280;25088;43.238;23.110;2022-12-16T01:29:10;96226.22;;;1.71;100.00
39363;BME280;25088;43.238;23.110;2022-12-16T01:31:35;96220.00;;;1.77;100.00
39363;BME280;25088;43.238;23.110;2022-12-16T01:34:01;96221.66;;;1.78;100.00
39363;BME280;25088;43.238;23.110;2022-12-16T01:36:26;96231.38;;;1.72;100.00
39363;BME280;25088;43.238;23.110;2022-12-16T01:38:52;96201.16;;;1.64;100.00
39363;BME280;25088;43.238;23.110;2022-12-16T01:41:17;96192.06;;;1.65;100.00
39363;BME280;25088;43.238;23.110;2022-12-16T01:43:43;96221.84;;;1.63;100.00
39363;BME280;25088;43.238;23.110;2022-12-16T01:48:43;96206.78;;;1.55;100.00
39363;BME280;25088;43.238;23.110;2022-12-16T01:53:42;96211.72;;;1.52;100.00
39363;BME280;25088;43.238;23.110;2022-12-16T01:56:09;96186.69;;;1.51;100.00
39363;BME280;25088;43.238;23.110;2022-12-16T01:58:37;96206.34;;;1.45;100.00
39363;BME280;25088;43.238;23.110;2022-12-16T02:01:04;96186.28;;;1.41;100.00
39363;BME280;25088;43.238;23.110;2022-12-16T02:03:31;96189.81;;;1.35;100.00
39363;BME280;25088;43.238;23.110;2022-12-16T02:05:57;96153.59;;;1.44;100.00
39363;BME280;25088;43.238;23.110;2022-12-16T02:08:23;96173.22;;;1.38;100.00
39363;BME280;25088;43.238;23.110;2022-12-16T02:10:53;96159.41;;;1.35;100.00
39363;BME280;25088;43.238;23.110;2022-12-16T02:21:22;96161.25;;;1.41;100.00
39363;BME280;25088;43.238;23.110;2022-12-16T02:41:55;96166.41;;;1.42;100.00
39363;BME280;25088;43.238;23.110;2022-12-16T02:44:47;96191.03;;;1.39;100.00
39363;BME280;25088;43.238;23.110;2022-12-16T02:47:10;96162.91;;;1.42;100.00
39363;BME280;25088;43.238;23.110;2022-12-16T02:49:40;96186.28;;;1.35;100.00
39363;BME280;25088;43.238;23.110;2022-12-16T02:52:07;96180.06;;;1.34;100.00
39363;BME280;25088;43.238;23.110;2022-12-16T02:54:33;96205.50;;;1.38;100.00
39363;BME280;25088;43.238;23.110;2022-12-16T02:57:17;96195.38;;;1.34;100.00
39363;BME280;25088;43.238;23.110;2022-12-16T02:59:49;96205.50;;;1.38;100.00
39363;BME280;25088;43.238;23.110;2022-12-16T03:02:26;96201.78;;;1.52;100.00
39363;BME280;25088;43.238;23.110;2022-12-16T03:05:18;96200.97;;;1.52;100.00
39363;BME280;25088;43.238;23.110;2022-12-16T03:07:40;96207.41;;;1.44;100.00
39363;BME280;25088;43.238;23.110;2022-12-16T03:10:09;96207.59;;;1.36;100.00
39363;BME280;25088;43.238;23.110;2022-12-16T03:12:36;96210.06;;;1.51;100.00
39363;BME280;25088;43.238;23.110;2022-12-16T03:15:02;96193.72;;;1.52;100.00
39363;BME280;25088;43.238;23.110;2022-12-16T03:17:28;96213.38;;;1.53;100.00
39363;BME280;25088;43.238;23.110;2022-12-16T03:20:00;96211.31;;;1.48;100.00
39363;BME280;25088;43.238;23.110;2022-12-16T03:22:28;96199.53;;;1.49;100.00
39363;BME280;25088;43.238;23.110;2022-12-16T03:24:57;96191.66;;;1.54;100.00
39363;BME280;25088;43.238;23.110;2022-12-16T03:27:28;96196.22;;;1.61;100.00
39363;BME280;25088;43.238;23.110;2022-12-16T03:37:38;96193.94;;;1.71;100.00
39363;BME280;25088;43.238;23.110;2022-12-16T03:40:05;96182.13;;;1.72;100.00
39363;BME280;25088;43.238;23.110;2022-12-16T03:42:32;96190.63;;;1.62;100.00
39363;BME280;25088;43.238;23.110;2022-12-16T03:44:58;96195.16;;;1.48;100.00
39363;BME280;25088;43.238;23.110;2022-12-16T03:47:24;96199.31;;;1.51;100.00
39363;BME280;25088;43.238;23.110;2022-12-16T03:49:51;96190.41;;;1.57;100.00
39363;BME280;25088;43.238;23.110;2022-12-16T03:52:16;96173.66;;;1.55;100.00
39363;BME280;25088;43.238;23.110;2022-12-16T03:54:42;96187.28;;;1.53;100.00
39363;BME280;25088;43.238;23.110;2022-12-16T03:57:07;96178.41;;;1.53;100.00
39363;BME280;25088;43.238;23.110;2022-12-16T03:59:32;96181.31;;;1.51;100.00
39363;BME280;25088;43.238;23.110;2022-12-16T04:01:57;96161.44;;;1.46;100.00
39363;BME280;25088;43.238;23.110;2022-12-16T04:04:24;96161.44;;;1.39;100.00
39363;BME280;25088;43.238;23.110;2022-12-16T04:06:49;96156.06;;;1.33;100.00
39363;BME280;25088;43.238;23.110;2022-12-16T04:09:34;96159.78;;;1.38;100.00
39363;BME280;25088;43.238;23.110;2022-12-16T04:12:00;96169.72;;;1.38;100.00
39363;BME280;25088;43.238;23.110;2022-12-16T04:14:43;96137.88;;;1.41;100.00
39363;BME280;25088;43.238;23.110;2022-12-16T04:17:27;96155.22;;;1.39;100.00
39363;BME280;25088;43.238;23.110;2022-12-16T04:20:15;96141.78;;;1.39;100.00
39363;BME280;25088;43.238;23.110;2022-12-16T04:22:59;96154.44;;;1.45;100.00
39363;BME280;25088;43.238;23.110;2022-12-16T04:25:43;96148.41;;;1.43;100.00
39363;BME280;25088;43.238;23.110;2022-12-16T04:28:09;96151.31;;;1.41;100.00
39363;BME280;25088;43.238;23.110;2022-12-16T04:30:34;96149.44;;;1.42;100.00
39363;BME280;25088;43.238;23.110;2022-12-16T04:33:00;96156.28;;;1.31;100.00
39363;BME280;25088;43.238;23.110;2022-12-16T04:35:45;96179.84;;;1.29;100.00
39363;BME280;25088;43.238;23.110;2022-12-16T04:38:30;96177.16;;;1.22;100.00
39363;BME280;25088;43.238;23.110;2022-12-16T04:41:13;96186.03;;;1.03;100.00
39363;BME280;25088;43.238;23.110;2022-12-16T04:43:57;96166.16;;;0.97;100.00
39363;BME280;25088;43.238;23.110;2022-12-16T04:46:41;96198.84;;;1.08;100.00
39363;BME280;25088;43.238;23.110;2022-12-16T04:49:25;96179.00;;;1.09;100.00
39363;BME280;25088;43.238;23.110;2022-12-16T04:52:09;96214.78;;;1.09;100.00
39363;BME280;25088;43.238;23.110;2022-12-16T04:54:53;96157.72;;;1.07;100.00
39363;BME280;25088;43.238;23.110;2022-12-16T04:57:37;96192.88;;;1.12;100.00
39363;BME280;25088;43.238;23.110;2022-12-16T05:00:21;96204.22;;;1.14;100.00
39363;BME280;25088;43.238;23.110;2022-12-16T05:03:05;96194.53;;;1.20;100.00
39363;BME280;25088;43.238;23.110;2022-12-16T05:05:49;96224.72;;;1.22;100.00
39363;BME280;25088;43.238;23.110;2022-12-16T05:08:33;96230.72;;;1.17;100.00
39363;BME280;25088;43.238;23.110;2022-12-16T05:11:17;96240.44;;;1.05;100.00
39363;BME280;25088;43.238;23.110;2022-12-16T05:14:01;96251.59;;;1.09;100.00
39363;BME280;25088;43.238;23.110;2022-12-16T05:16:45;96225.31;;;0.97;100.00
39363;BME280;25088;43.238;23.110;2022-12-16T05:19:29;96238.75;;;1.04;100.00
39363;BME280;25088;43.238;23.110;2022-12-16T05:22:12;96250.75;;;1.08;100.00
39363;BME280;25088;43.238;23.110;2022-12-16T05:24:56;96265.69;;;1.17;100.00
39363;BME280;25088;43.238;23.110;2022-12-16T05:27:40;96246.44;;;1.14;100.00
39363;BME280;25088;43.238;23.110;2022-12-16T05:30:24;96282.84;;;1.23;100.00
39363;BME280;25088;43.238;23.110;2022-12-16T05:33:08;96274.38;;;1.26;100.00
39363;BME280;25088;43.238;23.110;2022-12-16T05:35:52;96289.09;;;1.30;100.00
39363;BME280;25088;43.238;23.110;2022-12-16T05:38:36;96264.06;;;1.29;100.00
39363;BME280;25088;43.238;23.110;2022-12-16T05:41:20;96260.09;;;1.19;100.00
39363;BME280;25088;43.238;23.110;2022-12-16T05:44:04;96273.97;;;1.22;100.00
39363;BME280;25088;43.238;23.110;2022-12-16T05:46:48;96254.50;;;1.14;100.00
39363;BME280;25088;43.238;23.110;2022-12-16T05:49:32;96254.09;;;1.10;100.00
39363;BME280;25088;43.238;23.110;2022-12-16T05:52:15;96272.09;;;1.10;100.00
39363;BME280;25088;43.238;23.110;2022-12-16T05:55:00;96250.97;;;1.07;100.00
39363;BME280;25088;43.238;23.110;2022-12-16T05:57:43;96266.50;;;1.11;100.00
39363;BME280;25088;43.238;23.110;2022-12-16T06:00:27;96255.97;;;1.16;100.00
39363;BME280;25088;43.238;23.110;2022-12-16T06:03:11;96270.84;;;1.12;100.00
39363;BME280;25088;43.238;23.110;2022-12-16T06:05:55;96253.06;;;1.11;100.00
39363;BME280;25088;43.238;23.110;2022-12-16T06:08:39;96247.03;;;1.09;100.00
39363;BME280;25088;43.238;23.110;2022-12-16T06:11:23;96278.91;;;1.06;100.00
39363;BME280;25088;43.238;23.110;2022-12-16T06:14:07;96263.97;;;1.03;100.00
39363;BME280;25088;43.238;23.110;2022-12-16T06:16:51;96264.19;;;1.08;100.00
39363;BME280;25088;43.238;23.110;2022-12-16T06:19:35;96259.03;;;1.13;100.00
39363;BME280;25088;43.238;23.110;2022-12-16T06:22:18;96255.13;;;1.16;100.00
39363;BME280;25088;43.238;23.110;2022-12-16T06:25:02;96260.28;;;1.11;100.00
39363;BME280;25088;43.238;23.110;2022-12-16T06:27:50;96251.63;;;1.22;100.00
39363;BME280;25088;43.238;23.110;2022-12-16T06:30:34;96265.19;;;0.94;100.00
39363;BME280;25088;43.238;23.110;2022-12-16T06:33:19;96241.03;;;1.07;100.00
39363;BME280;25088;43.238;23.110;2022-12-16T06:36:03;96261.72;;;1.07;100.00
39363;BME280;25088;43.238;23.110;2022-12-16T06:38:47;96276.88;;;1.34;100.00
39363;BME280;25088;43.238;23.110;2022-12-16T06:41:30;96272.56;;;1.46;100.00
39363;BME280;25088;43.238;23.110;2022-12-16T06:44:15;96271.34;;;1.55;100.00
39363;BME280;25088;43.238;23.110;2022-12-16T06:46:58;96285.44;;;1.64;100.00
39363;BME280;25088;43.238;23.110;2022-12-16T06:49:42;96287.28;;;1.70;100.00
39363;BME280;25088;43.238;23.110;2022-12-16T06:52:26;96294.72;;;1.62;100.00
39363;BME280;25088;43.238;23.110;2022-12-16T06:55:10;96295.13;;;1.45;100.00
39363;BME280;25088;43.238;23.110;2022-12-16T06:57:57;96320.38;;;1.44;100.00
39363;BME280;25088;43.238;23.110;2022-12-16T07:00:42;96301.31;;;1.46;100.00
39363;BME280;25088;43.238;23.110;2022-12-16T07:03:26;96286.63;;;1.48;100.00
39363;BME280;25088;43.238;23.110;2022-12-16T07:06:09;96341.00;;;1.31;100.00
39363;BME280;25088;43.238;23.110;2022-12-16T07:08:53;96320.75;;;1.41;100.00
39363;BME280;25088;43.238;23.110;2022-12-16T07:11:37;96343.97;;;1.55;100.00
39363;BME280;25088;43.238;23.110;2022-12-16T07:14:21;96300.91;;;1.49;100.00
39363;BME280;25088;43.238;23.110;2022-12-16T07:17:05;96318.69;;;1.30;100.00
39363;BME280;25088;43.238;23.110;2022-12-16T07:19:49;96294.25;;;1.32;100.00
39363;BME280;25088;43.238;23.110;2022-12-16T07:22:33;96295.91;;;1.26;100.00
39363;BME280;25088;43.238;23.110;2022-12-16T07:25:17;96277.72;;;1.35;100.00
39363;BME280;25088;43.238;23.110;2022-12-16T07:28:01;96277.13;;;1.46;100.00
39363;BME280;25088;43.238;23.110;2022-12-16T07:30:45;96282.09;;;1.55;100.00
39363;BME280;25088;43.238;23.110;2022-12-16T07:33:29;96262.22;;;1.57;100.00
39363;BME280;25088;43.238;23.110;2022-12-16T07:36:13;96257.47;;;1.72;100.00
39363;BME280;25088;43.238;23.110;2022-12-16T07:38:56;96243.78;;;2.06;100.00
39363;BME280;25088;43.238;23.110;2022-12-16T07:41:40;96254.75;;;2.12;100.00
39363;BME280;25088;43.238;23.110;2022-12-16T07:44:24;96240.09;;;1.94;100.00
39363;BME280;25088;43.238;23.110;2022-12-16T07:47:08;96238.06;;;2.61;100.00
39363;BME280;25088;43.238;23.110;2022-12-16T07:49:52;96237.03;;;2.55;100.00
39363;BME280;25088;43.238;23.110;2022-12-16T07:52:36;96242.41;;;2.69;100.00
39363;BME280;25088;43.238;23.110;2022-12-16T07:55:20;96240.72;;;2.68;100.00
39363;BME280;25088;43.238;23.110;2022-12-16T07:58:04;96225.44;;;2.55;100.00
39363;BME280;25088;43.238;23.110;2022-12-16T08:00:48;96248.00;;;2.61;100.00
39363;BME280;25088;43.238;23.110;2022-12-16T08:03:32;96225.19;;;2.70;100.00
39363;BME280;25088;43.238;23.110;2022-12-16T08:06:16;96244.69;;;3.10;100.00
39363;BME280;25088;43.238;23.110;2022-12-16T08:08:59;96248.63;;;3.07;100.00
39363;BME280;25088;43.238;23.110;2022-12-16T08:11:43;96243.88;;;3.03;100.00
39363;BME280;25088;43.238;23.110;2022-12-16T08:14:27;96245.66;;;2.84;100.00
39363;BME280;25088;43.238;23.110;2022-12-16T08:17:11;96254.34;;;2.86;100.00
39363;BME280;25088;43.238;23.110;2022-12-16T08:19:55;96266.66;;;3.77;100.00
39363;BME280;25088;43.238;23.110;2022-12-16T08:22:39;96247.06;;;3.88;100.00
39363;BME280;25088;43.238;23.110;2022-12-16T08:25:23;96290.63;;;3.67;100.00
39363;BME280;25088;43.238;23.110;2022-12-16T08:28:07;96274.72;;;3.52;100.00
39363;BME280;25088;43.238;23.110;2022-12-16T08:30:51;96270.44;;;3.37;100.00
39363;BME280;25088;43.238;23.110;2022-12-16T08:33:35;96266.09;;;2.98;100.00
39363;BME280;25088;43.238;23.110;2022-12-16T08:36:19;96276.03;;;3.04;100.00
39363;BME280;25088;43.238;23.110;2022-12-16T08:39:03;96251.72;;;3.11;100.00
39363;BME280;25088;43.238;23.110;2022-12-16T08:41:47;96271.28;;;2.93;100.00
39363;BME280;25088;43.238;23.110;2022-12-16T08:44:31;96277.50;;;3.00;100.00
39363;BME280;25088;43.238;23.110;2022-12-16T08:47:14;96288.38;;;2.80;100.00
39363;BME280;25088;43.238;23.110;2022-12-16T08:49:58;96277.38;;;2.89;100.00
39363;BME280;25088;43.238;23.110;2022-12-16T08:52:42;96304.69;;;2.92;100.00
39363;BME280;25088;43.238;23.110;2022-12-16T08:55:26;96287.88;;;3.03;100.00
39363;BME280;25088;43.238;23.110;2022-12-16T08:58:10;96285.31;;;3.15;100.00
39363;BME280;25088;43.238;23.110;2022-12-16T09:00:54;96280.47;;;3.30;100.00
39363;BME280;25088;43.238;23.110;2022-12-16T09:03:38;96258.72;;;3.25;100.00
39363;BME280;25088;43.238;23.110;2022-12-16T09:06:22;96246.63;;;3.28;100.00
39363;BME280;25088;43.238;23.110;2022-12-16T09:09:06;96232.50;;;3.32;100.00
39363;BME280;25088;43.238;23.110;2022-12-16T09:11:50;96225.06;;;3.28;100.00
39363;BME280;25088;43.238;23.110;2022-12-16T09:14:34;96241.69;;;3.25;100.00
39363;BME280;25088;43.238;23.110;2022-12-16T09:17:17;96217.25;;;3.20;100.00
39363;BME280;25088;43.238;23.110;2022-12-16T09:20:01;96222.75;;;3.31;100.00
39363;BME280;25088;43.238;23.110;2022-12-16T09:22:45;96224.81;;;3.36;100.00
39363;BME280;25088;43.238;23.110;2022-12-16T09:25:29;96221.94;;;3.31;100.00
39363;BME280;25088;43.238;23.110;2022-12-16T09:28:13;96223.91;;;3.49;100.00
39363;BME280;25088;43.238;23.110;2022-12-16T09:30:57;96192.00;;;3.89;100.00
39363;BME280;25088;43.238;23.110;2022-12-16T09:33:41;96211.00;;;4.01;100.00
39363;BME280;25088;43.238;23.110;2022-12-16T09:36:25;96191.75;;;4.15;100.00
39363;BME280;25088;43.238;23.110;2022-12-16T09:39:09;96202.69;;;4.21;100.00
39363;BME280;25088;43.238;23.110;2022-12-16T09:45:01;96166.47;;;5.37;100.00
39363;BME280;25088;43.238;23.110;2022-12-16T09:47:55;96166.31;;;6.44;100.00
39363;BME280;25088;43.238;23.110;2022-12-16T09:50:43;96173.94;;;7.28;92.45
39363;BME280;25088;43.238;23.110;2022-12-16T09:53:27;96162.88;;;7.46;87.43
39363;BME280;25088;43.238;23.110;2022-12-16T09:56:20;96163.56;;;7.24;87.31
39363;BME280;25088;43.238;23.110;2022-12-16T09:59:06;96155.53;;;7.01;90.15
39363;BME280;25088;43.238;23.110;2022-12-16T10:01:53;96144.03;;;7.11;89.48
39363;BME280;25088;43.238;23.110;2022-12-16T10:04:38;96155.28;;;7.03;91.86
39363;BME280;25088;43.238;23.110;2022-12-16T10:07:22;96135.84;;;6.94;89.96
39363;BME280;25088;43.238;23.110;2022-12-16T10:21:28;96148.91;;;7.88;82.24
39363;BME280;25088;43.238;23.110;2022-12-16T10:27:15;96138.06;;;9.14;76.65
39363;BME280;25088;43.238;23.110;2022-12-16T10:29:59;96134.06;;;9.49;74.65
39363;BME280;25088;43.238;23.110;2022-12-16T10:32:50;96123.31;;;9.69;76.37
39363;BME280;25088;43.238;23.110;2022-12-16T10:35:44;96087.63;;;10.08;73.68
39363;BME280;25088;43.238;23.110;2022-12-16T10:41:23;96138.00;;;9.31;73.30
39363;BME280;25088;43.238;23.110;2022-12-16T10:44:16;96125.69;;;8.79;76.32
39363;BME280;25088;43.238;23.110;2022-12-16T10:47:02;96118.13;;;8.21;81.32
39363;BME280;25088;43.238;23.110;2022-12-16T10:49:46;96142.03;;;7.85;84.82
39363;BME280;25088;43.238;23.110;2022-12-16T10:52:31;96123.53;;;7.82;85.95
39363;BME280;25088;43.238;23.110;2022-12-16T11:01:02;96107.81;;;7.34;91.01
39363;BME280;25088;43.238;23.110;2022-12-16T11:04:04;96138.16;;;7.31;91.06
39363;BME280;25088;43.238;23.110;2022-12-16T11:07:10;96144.78;;;7.68;89.90
39363;BME280;25088;43.238;23.110;2022-12-16T11:10:20;96142.19;;;8.12;90.62
39363;BME280;25088;43.238;23.110;2022-12-16T11:13:16;96124.91;;;8.57;84.00
39363;BME280;25088;43.238;23.110;2022-12-16T11:16:18;96126.25;;;7.82;86.66
39363;BME280;25088;43.238;23.110;2022-12-16T11:19:02;96163.47;;;7.19;92.01
39363;BME280;25088;43.238;23.110;2022-12-16T11:21:47;96129.34;;;7.23;91.75
39363;BME280;25088;43.238;23.110;2022-12-16T11:24:31;96151.78;;;6.90;92.74
39363;BME280;25088;43.238;23.110;2022-12-16T11:27:22;96141.34;;;6.82;94.33
39363;BME280;25088;43.238;23.110;2022-12-16T11:30:18;96150.31;;;6.19;97.13
39363;BME280;25088;43.238;23.110;2022-12-16T11:33:13;96162.94;;;6.13;100.00
39363;BME280;25088;43.238;23.110;2022-12-16T11:36:06;96160.22;;;6.02;100.00
39363;BME280;25088;43.238;23.110;2022-12-16T11:38:52;96159.13;;;5.67;100.00
39363;BME280;25088;43.238;23.110;2022-12-16T11:41:38;96159.66;;;5.46;100.00
39363;BME280;25088;43.238;23.110;2022-12-16T11:44:25;96191.75;;;5.31;100.00
39363;BME280;25088;43.238;23.110;2022-12-16T11:47:16;96165.16;;;5.28;100.00
39363;BME280;25088;43.238;23.110;2022-12-16T11:50:10;96183.59;;;5.19;100.00
39363;BME280;25088;43.238;23.110;2022-12-16T11:52:56;96166.06;;;5.22;100.00
39363;BME280;25088;43.238;23.110;2022-12-16T11:55:43;96165.13;;;5.16;100.00
39363;BME280;25088;43.238;23.110;2022-12-16T11:58:47;96165.25;;;5.21;100.00
39363;BME280;25088;43.238;23.110;2022-12-16T12:01:37;96145.97;;;5.29;100.00
39363;BME280;25088;43.238;23.110;2022-12-16T12:04:22;96149.50;;;5.18;100.00
39363;BME280;25088;43.238;23.110;2022-12-16T12:16:38;96169.44;;;5.05;100.00
39363;BME280;25088;43.238;23.110;2022-12-16T12:19:32;96170.66;;;4.91;100.00
39363;BME280;25088;43.238;23.110;2022-12-16T12:22:36;96161.34;;;4.87;100.00
39363;BME280;25088;43.238;23.110;2022-12-16T12:31:11;96160.03;;;4.78;100.00
39363;BME280;25088;43.238;23.110;2022-12-16T12:39:31;96150.34;;;4.70;100.00
39363;BME280;25088;43.238;23.110;2022-12-16T12:45:37;96142.94;;;4.65;100.00
39363;BME280;25088;43.238;23.110;2022-12-16T12:51:39;96136.25;;;4.68;100.00
39363;BME280;25088;43.238;23.110;2022-12-16T12:54:33;96157.06;;;4.68;100.00
39363;BME280;25088;43.238;23.110;2022-12-16T12:57:19;96159.97;;;4.66;100.00
39363;BME280;25088;43.238;23.110;2022-12-16T13:00:11;96166.88;;;4.80;100.00
39363;BME280;25088;43.238;23.110;2022-12-16T13:05:47;96168.16;;;4.78;100.00
39363;BME280;25088;43.238;23.110;2022-12-16T13:11:33;96149.50;;;4.58;100.00
39363;BME280;25088;43.238;23.110;2022-12-16T13:17:14;96149.94;;;4.55;100.00
39363;BME280;25088;43.238;23.110;2022-12-16T13:19:58;96131.81;;;4.55;100.00
39363;BME280;25088;43.238;23.110;2022-12-16T13:22:42;96140.97;;;4.73;100.00
39363;BME280;25088;43.238;23.110;2022-12-16T13:28:34;96126.94;;;4.94;100.00
39363;BME280;25088;43.238;23.110;2022-12-16T13:31:18;96135.19;;;4.99;100.00
39363;BME280;25088;43.238;23.110;2022-12-16T13:34:03;96131.94;;;5.09;100.00
39363;BME280;25088;43.238;23.110;2022-12-16T13:37:05;96111.00;;;5.16;100.00
39363;BME280;25088;43.238;23.110;2022-12-16T13:40:20;96135.63;;;4.96;100.00
39363;BME280;25088;43.238;23.110;2022-12-16T13:43:03;96145.13;;;4.87;100.00
39363;BME280;25088;43.238;23.110;2022-12-16T13:48:40;96133.75;;;4.97;100.00
39363;BME280;25088;43.238;23.110;2022-12-16T13:57:17;96153.09;;;4.82;100.00
39363;BME280;25088;43.238;23.110;2022-12-16T14:00:04;96159.28;;;4.71;100.00
39363;BME280;25088;43.238;23.110;2022-12-16T14:02:49;96158.91;;;4.67;100.00
39363;BME280;25088;43.238;23.110;2022-12-16T14:05:35;96165.78;;;4.51;100.00
39363;BME280;25088;43.238;23.110;2022-12-16T14:08:20;96160.84;;;4.48;100.00
39363;BME280;25088;43.238;23.110;2022-12-16T14:11:07;96185.59;;;4.45;100.00
39363;BME280;25088;43.238;23.110;2022-12-16T14:13:58;96183.34;;;4.42;100.00
39363;BME280;25088;43.238;23.110;2022-12-16T14:16:50;96184.00;;;4.37;100.00
39363;BME280;25088;43.238;23.110;2022-12-16T14:25:25;96199.91;;;4.27;100.00
39363;BME280;25088;43.238;23.110;2022-12-16T14:36:58;96199.03;;;4.33;100.00
39363;BME280;25088;43.238;23.110;2022-12-16T14:39:42;96187.78;;;4.36;100.00
39363;BME280;25088;43.238;23.110;2022-12-16T14:42:27;96176.81;;;4.31;100.00
39363;BME280;25088;43.238;23.110;2022-12-16T14:54:30;96189.25;;;4.32;100.00
39363;BME280;25088;43.238;23.110;2022-12-16T14:57:16;96182.00;;;4.33;100.00
39363;BME280;25088;43.238;23.110;2022-12-16T15:03:19;96179.28;;;4.14;100.00
39363;BME280;25088;43.238;23.110;2022-12-16T15:06:13;96160.81;;;4.11;100.00
39363;BME280;25088;43.238;23.110;2022-12-16T15:09:00;96167.13;;;4.05;100.00
39363;BME280;25088;43.238;23.110;2022-12-16T15:11:44;96183.56;;;4.04;100.00
39363;BME280;25088;43.238;23.110;2022-12-16T15:14:31;96133.16;;;3.73;100.00
39363;BME280;25088;43.238;23.110;2022-12-16T15:17:26;96171.16;;;3.96;100.00
39363;BME280;25088;43.238;23.110;2022-12-16T15:20:20;96198.00;;;3.91;100.00
39363;BME280;25088;43.238;23.110;2022-12-16T15:23:16;96176.84;;;3.88;100.00
39363;BME280;25088;43.238;23.110;2022-12-16T15:26:01;96178.53;;;3.82;100.00
39363;BME280;25088;43.238;23.110;2022-12-16T15:28:45;96179.03;;;3.73;100.00
39363;BME280;25088;43.238;23.110;2022-12-16T15:31:49;96197.94;;;3.73;100.00
39363;BME280;25088;43.238;23.110;2022-12-16T15:34:42;96197.13;;;3.72;100.00
39363;BME280;25088;43.238;23.110;2022-12-16T15:37:29;96190.31;;;3.70;100.00
39363;BME280;25088;43.238;23.110;2022-12-16T15:40:21;96199.88;;;3.66;100.00
39363;BME280;25088;43.238;23.110;2022-12-16T15:43:05;96184.25;;;3.49;100.00
39363;BME280;25088;43.238;23.110;2022-12-16T15:45:59;96193.91;;;3.32;100.00
39363;BME280;25088;43.238;23.110;2022-12-16T15:48:43;96199.78;;;3.22;100.00
39363;BME280;25088;43.238;23.110;2022-12-16T15:51:41;96193.38;;;3.17;100.00
39363;BME280;25088;43.238;23.110;2022-12-16T15:54:25;96211.03;;;3.13;100.00
39363;BME280;25088;43.238;23.110;2022-12-16T15:57:28;96203.19;;;3.11;100.00
39363;BME280;25088;43.238;23.110;2022-12-16T16:03:02;96216.53;;;3.31;100.00
39363;BME280;25088;43.238;23.110;2022-12-16T16:05:46;96213.78;;;3.37;100.00
39363;BME280;25088;43.238;23.110;2022-12-16T16:08:30;96194.66;;;3.46;100.00
39363;BME280;25088;43.238;23.110;2022-12-16T16:11:14;96196.84;;;3.55;100.00
39363;BME280;25088;43.238;23.110;2022-12-16T16:14:00;96214.53;;;3.51;100.00
39363;BME280;25088;43.238;23.110;2022-12-16T16:16:43;96223.84;;;3.55;100.00
39363;BME280;25088;43.238;23.110;2022-12-16T16:19:27;96212.81;;;3.57;100.00
39363;BME280;25088;43.238;23.110;2022-12-16T16:22:15;96200.44;;;3.49;100.00
39363;BME280;25088;43.238;23.110;2022-12-16T16:25:00;96189.25;;;3.46;100.00